Greater Rochester International Airport
KROC : now visible

Airfield :











YOU CAN JOIN US ON...

 
LOGIN :

Register | Disclaimer

   EN    FR    IT 

 









Legend :    VFR   Marginal VFR   IFR   Intensive IFR   Very Intensive IFR
Visi :
Ceiling :
>= 8 km
>= 3000ft
5 to 8 km
1000 to 3000 ft
1500m to 5 km
500 to 1000 ft
800 to 1500m
200 to 500 ft
< 800m
< 200 ft
Symbols :   Thunderstorms  Fog  Heavy snow  Heavy precipitations  Wind > 20 kt






- Airport Elevation : 559 ft
- IATA code : ROC


KROC - Greater Rochester International

CURRENT METAR :
  • 181427Z 28012G22KT 10SM SCT017 OVC029 14/10 A2997 RMK AO2 T01440100

EXPIRED METARs :
  • 181354Z 28009KT 10SM FEW015 SCT033 OVC070 14/10 A2995 RMK AO2 SLP146 T01390100
  • 181254Z 24006KT 10SM SCT012 BKN090 14/11 A2992 RMK AO2 SLP136 T01390111
  • 181232Z 26008KT 10SM SCT012 BKN090 13/11 A2992 RMK AO2 T01330106
  • 181154Z 25008KT 10SM BKN010 OVC040 13/10 A2992 RMK AO2 SLP134 BINOVC 60003 70043 T01280100 10133 20117 53025
  • 181123Z 25013G19KT 10SM OVC010 12/10 A2990 RMK AO2 CIG 009V014 T01220100
  • 181054Z 25009KT 10SM OVC009 12/10 A2989 RMK AO2 SLP126 T01220100
  • 180954Z 27007KT 10SM BKN009 OVC014 13/11 A2986 RMK AO2 SLP115 BINOVC T01280106

TAF KROC
Valid from the 18 at 14:00 until the 19 at 12:00 UTC


181404Z 1814/1912 27008KT P6SM SCT012 BKN080
FM181500 25012G20KT P6SM BKN025
FM182200 25008KT P6SM BKN035
FM190300 18004KT P6SM BKN060
FM190800 15006KT P6SM BKN070
KZOB FIR / North America



MET'MAP, your aeronautical weather chart ! - Copyright ORBIFLY December 2007 - Disclaimer

ORBIFLY MET'MAP TEAM :

Programming & Development : Alexandra Zaïnal
Original concept : Baudouin d'Aumeries
Technical & hardware support : Manuel Goepfert
Assistance : Marc-Olivier Méhu




SOURCES & CREDITS :

   NOAA       Earth
Advisory